createdAt,value
2023-04-08T00:04:39.046Z,13.01
2023-04-08T00:09:41.474Z,13.10
2023-04-08T00:14:43.772Z,12.87
2023-04-08T00:19:45.923Z,12.84
2023-04-08T00:24:48.116Z,12.75
2023-04-08T00:29:50.281Z,12.72
2023-04-08T00:34:52.977Z,12.40
2023-04-08T00:39:55.179Z,12.26
2023-04-08T00:44:57.478Z,12.29
2023-04-08T00:49:59.820Z,12.34
2023-04-08T00:55:02.015Z,12.48
2023-04-08T01:00:06.934Z,12.35
2023-04-08T01:05:21.304Z,12.26
2023-04-08T01:10:29.451Z,11.89
2023-04-08T01:15:34.361Z,12.07
2023-04-08T01:20:37.626Z,12.15
2023-04-08T01:25:40.222Z,11.96
2023-04-08T01:30:43.737Z,12.09
2023-04-08T01:35:46.569Z,12.05
2023-04-08T01:40:50.338Z,12.02
2023-04-08T01:45:58.727Z,12.06
2023-04-08T01:51:01.744Z,11.97
2023-04-08T01:56:12.344Z,11.81
2023-04-08T02:01:18.531Z,12.00
2023-04-08T02:06:20.756Z,12.07
2023-04-08T02:11:22.897Z,12.31
2023-04-08T02:16:30.509Z,12.41
2023-04-08T02:21:39.460Z,12.47
2023-04-08T02:26:43.629Z,12.44
2023-04-08T02:31:47.406Z,12.50
2023-04-08T02:36:51.445Z,12.09
2023-04-08T02:41:53.555Z,12.03
2023-04-08T02:46:56.201Z,11.58
2023-04-08T02:51:58.346Z,11.93
2023-04-08T02:57:00.580Z,11.72
2023-04-08T03:02:02.724Z,11.60
2023-04-08T03:07:06.748Z,11.45
2023-04-08T03:12:10.591Z,11.34
2023-04-08T03:17:12.759Z,11.18
2023-04-08T03:22:15.265Z,11.26
2023-04-08T03:27:17.446Z,10.87
2023-04-08T03:32:19.917Z,10.09
2023-04-08T03:37:22.018Z,9.94
2023-04-08T03:42:24.684Z,9.62
2023-04-08T03:47:27.645Z,9.24
2023-04-08T03:52:30.003Z,9.24
2023-04-08T03:57:32.102Z,9.55
2023-04-08T04:02:34.500Z,9.71
2023-04-08T04:07:36.796Z,10.13
2023-04-08T04:12:39.023Z,10.44
2023-04-08T04:17:41.394Z,10.54
2023-04-08T04:22:43.728Z,10.70
2023-04-08T04:27:45.904Z,10.70
2023-04-08T04:32:48.202Z,10.89
2023-04-08T04:37:52.206Z,10.83
2023-04-08T04:42:54.415Z,11.02
2023-04-08T04:47:56.703Z,10.70
2023-04-08T04:52:58.959Z,10.78
2023-04-08T04:58:01.178Z,10.56
2023-04-08T05:03:03.454Z,10.60
2023-04-08T05:08:07.474Z,10.62
2023-04-08T05:13:09.557Z,10.51
2023-04-08T05:18:12.053Z,10.73
2023-04-08T05:23:14.216Z,10.58
2023-04-08T05:28:16.316Z,10.52
2023-04-08T05:33:19.763Z,10.54
2023-04-08T05:38:22.026Z,10.30
2023-04-08T05:43:24.247Z,10.07
2023-04-08T05:48:26.604Z,10.38
2023-04-08T05:53:28.811Z,10.79
2023-04-08T05:58:31.011Z,10.96
2023-04-08T06:03:33.426Z,11.45
2023-04-08T06:08:35.720Z,11.66
2023-04-08T06:13:38.715Z,12.31
2023-04-08T06:18:42.049Z,12.63
2023-04-08T06:23:44.439Z,12.99
2023-04-08T06:28:47.242Z,13.17
2023-04-08T06:33:49.382Z,13.14
2023-04-08T06:38:52.079Z,13.43
2023-04-08T06:43:54.746Z,13.39
2023-04-08T06:48:57.067Z,13.46
2023-04-08T06:53:59.360Z,13.65
2023-04-08T06:59:02.042Z,13.73
2023-04-08T07:04:04.419Z,13.93
2023-04-08T07:09:07.457Z,14.04
2023-04-08T07:14:09.691Z,14.12
2023-04-08T07:19:12.248Z,14.25
2023-04-08T07:24:14.534Z,14.26
2023-04-08T07:29:17.202Z,14.39
2023-04-08T07:34:19.343Z,14.48
2023-04-08T07:39:21.660Z,14.66
2023-04-08T07:44:23.892Z,14.88
2023-04-08T07:49:26.218Z,14.96
2023-04-08T07:54:28.373Z,15.01
2023-04-08T07:59:31.676Z,15.21
2023-04-08T08:04:34.279Z,15.56
2023-04-08T08:09:37.003Z,15.77
2023-04-08T08:14:39.279Z,16.20
2023-04-08T08:19:41.750Z,16.43
2023-04-08T08:24:44.187Z,16.60
2023-04-08T08:29:46.331Z,16.82
2023-04-08T08:34:48.609Z,16.95
2023-04-08T08:39:50.700Z,17.12
2023-04-08T08:44:53.075Z,16.94
2023-04-08T08:49:55.703Z,17.34
2023-04-08T08:55:02.466Z,17.61
2023-04-08T09:00:07.425Z,17.80
2023-04-08T09:05:10.094Z,17.65
2023-04-08T09:10:12.466Z,17.78
2023-04-08T09:15:14.894Z,18.01
2023-04-08T09:20:17.439Z,18.26
2023-04-08T09:25:27.095Z,18.36
2023-04-08T09:30:29.291Z,18.21
2023-04-08T09:35:31.489Z,17.79
2023-04-08T09:40:38.410Z,17.87
2023-04-08T09:45:43.178Z,17.76
2023-04-08T09:50:53.206Z,17.41
2023-04-08T09:55:57.827Z,17.57
2023-04-08T10:01:01.105Z,17.88
2023-04-08T10:06:04.146Z,18.19
2023-04-08T10:11:06.776Z,18.70
2023-04-08T10:16:30.242Z,19.14
2023-04-08T10:21:37.737Z,19.12
2023-04-08T10:26:42.138Z,18.73
2023-04-08T10:31:45.648Z,19.25
2023-04-08T10:36:48.198Z,19.03
2023-04-08T10:41:51.809Z,18.64
2023-04-08T10:46:55.363Z,18.95
2023-04-08T10:51:57.487Z,19.24
2023-04-08T10:57:00.328Z,19.42
2023-04-08T11:02:03.243Z,19.80
2023-04-08T11:07:07.298Z,20.03
2023-04-08T11:12:09.566Z,19.88
2023-04-08T11:17:12.883Z,19.86
2023-04-08T11:22:15.107Z,19.70
2023-04-08T11:27:17.434Z,19.80
2023-04-08T11:32:19.960Z,20.22
2023-04-08T11:37:22.823Z,20.19
2023-04-08T11:42:32.401Z,20.51
2023-04-08T11:47:35.845Z,20.76
2023-04-08T11:52:48.382Z,21.04
2023-04-08T11:57:52.308Z,21.12
2023-04-08T12:02:54.619Z,21.13
2023-04-08T12:07:57.035Z,21.30
2023-04-08T12:12:59.228Z,21.33
2023-04-08T12:18:01.916Z,21.69
2023-04-08T12:23:04.867Z,21.82
2023-04-08T12:28:07.050Z,21.94
2023-04-08T12:33:09.349Z,22.20
2023-04-08T12:38:11.517Z,22.16
2023-04-08T12:43:13.812Z,22.32
2023-04-08T12:48:16.151Z,22.46
2023-04-08T12:53:18.664Z,22.58
2023-04-08T12:58:22.385Z,22.70
2023-04-08T13:03:24.889Z,22.51
2023-04-08T13:08:27.125Z,22.54
2023-04-08T13:13:29.288Z,22.69
2023-04-08T13:18:31.642Z,22.82
2023-04-08T13:23:34.058Z,22.69
2023-04-08T13:28:49.799Z,22.41
2023-04-08T13:33:58.786Z,22.62
2023-04-08T13:39:01.081Z,22.23
2023-04-08T13:44:03.279Z,22.49
2023-04-08T13:49:05.489Z,22.48
2023-04-08T13:54:07.601Z,22.66
2023-04-08T13:59:11.830Z,22.73
2023-04-08T14:04:14.032Z,22.36
2023-04-08T14:09:16.300Z,22.72
2023-04-08T14:14:18.558Z,22.93
2023-04-08T14:19:20.990Z,22.89
2023-04-08T14:24:23.153Z,22.87
2023-04-08T14:29:26.632Z,22.95
2023-04-08T14:34:29.932Z,23.07
2023-04-08T14:39:32.143Z,21.97
2023-04-08T14:44:34.348Z,21.68
2023-04-08T14:49:36.731Z,21.96
2023-04-08T14:54:39.302Z,22.26
2023-04-08T14:59:41.689Z,22.07
2023-04-08T15:04:43.862Z,22.87
2023-04-08T15:09:46.250Z,22.06
2023-04-08T15:14:48.346Z,22.07
2023-04-08T15:19:50.660Z,22.48
2023-04-08T15:24:53.010Z,21.47
2023-04-08T15:29:55.166Z,22.72
2023-04-08T15:34:57.280Z,24.41
2023-04-08T15:39:59.471Z,25.30
2023-04-08T15:45:02.051Z,25.87
2023-04-08T15:50:04.532Z,25.71
2023-04-08T15:55:07.402Z,25.90
2023-04-08T16:00:11.714Z,25.94
2023-04-08T16:05:13.940Z,23.81
2023-04-08T16:10:16.244Z,22.23
2023-04-08T16:15:18.953Z,21.39
2023-04-08T16:20:21.563Z,20.68
2023-04-08T16:25:23.831Z,20.05
2023-04-08T16:30:26.794Z,19.27
2023-04-08T16:35:29.138Z,18.92
2023-04-08T16:40:33.662Z,18.66
2023-04-08T16:45:36.089Z,18.43
2023-04-08T16:50:40.177Z,18.26
2023-04-08T16:55:42.375Z,17.96
2023-04-08T17:00:44.561Z,17.66
2023-04-08T17:05:46.956Z,17.52
2023-04-08T17:10:49.996Z,17.74
2023-04-08T17:15:52.474Z,17.56
2023-04-08T17:20:54.607Z,17.39
2023-04-08T17:25:57.467Z,17.35
2023-04-08T17:30:59.925Z,17.21
2023-04-08T17:36:02.183Z,17.14
2023-04-08T17:41:04.711Z,17.01
2023-04-08T17:46:07.264Z,16.99
2023-04-08T17:51:09.623Z,16.70
2023-04-08T17:56:12.317Z,16.42
2023-04-08T18:01:15.034Z,16.63
2023-04-08T18:06:18.286Z,16.65
2023-04-08T18:11:21.560Z,16.75
2023-04-08T18:16:24.766Z,16.55
2023-04-08T18:21:27.521Z,16.61
2023-04-08T18:26:29.857Z,16.50
2023-04-08T18:31:32.013Z,16.58
2023-04-08T18:36:34.940Z,16.77
2023-04-08T18:41:37.694Z,16.59
2023-04-08T18:46:39.948Z,16.62
2023-04-08T18:51:51.624Z,16.71
2023-04-08T18:57:01.988Z,16.81
2023-04-08T19:02:04.391Z,16.74
2023-04-08T19:07:06.845Z,16.69
2023-04-08T19:12:09.435Z,16.67
2023-04-08T19:17:11.951Z,16.64
2023-04-08T19:22:14.195Z,16.68
2023-04-08T19:27:16.672Z,16.66
2023-04-08T19:32:19.525Z,16.59
2023-04-08T19:37:21.761Z,16.50
2023-04-08T19:42:24.558Z,16.48
2023-04-08T19:47:26.839Z,16.45
2023-04-08T19:52:29.085Z,16.39
2023-04-08T19:57:31.399Z,16.60
2023-04-08T20:02:33.666Z,16.47
2023-04-08T20:07:36.045Z,16.34
2023-04-08T20:12:38.405Z,16.33
2023-04-08T20:17:40.672Z,16.26
2023-04-08T20:22:43.841Z,16.33
2023-04-08T20:27:46.364Z,16.18
2023-04-08T20:32:48.809Z,16.33
2023-04-08T20:37:51.515Z,16.29
2023-04-08T20:42:54.142Z,16.23
2023-04-08T20:47:56.332Z,16.21
2023-04-08T20:52:58.785Z,16.16
2023-04-08T20:58:05.884Z,16.16
2023-04-08T21:03:08.269Z,16.08
2023-04-08T21:08:10.441Z,16.13
2023-04-08T21:13:12.543Z,16.17
2023-04-08T21:18:14.983Z,16.11
2023-04-08T21:23:17.155Z,15.92
2023-04-08T21:28:19.258Z,16.09
2023-04-08T21:33:21.853Z,16.09
2023-04-08T21:38:24.179Z,16.03
2023-04-08T21:43:26.456Z,16.07
2023-04-08T21:48:28.599Z,16.01
2023-04-08T21:53:30.988Z,16.09
2023-04-08T21:58:33.216Z,15.99
2023-04-08T22:03:35.548Z,16.05
2023-04-08T22:08:37.872Z,16.04
2023-04-08T22:13:40.018Z,16.00
2023-04-08T22:18:42.560Z,15.86
2023-04-08T22:23:45.690Z,15.90
2023-04-08T22:28:47.873Z,15.98
2023-04-08T22:33:51.506Z,15.92
2023-04-08T22:38:54.031Z,15.85
2023-04-08T22:43:56.478Z,15.95
2023-04-08T22:48:58.770Z,15.91
2023-04-08T22:54:01.404Z,15.94
2023-04-08T22:59:04.084Z,15.87
2023-04-08T23:04:06.450Z,15.73
2023-04-08T23:09:28.061Z,15.92
2023-04-08T23:14:30.320Z,15.92
2023-04-08T23:19:32.755Z,15.97
2023-04-08T23:24:35.482Z,15.89
2023-04-08T23:29:38.025Z,15.77
2023-04-08T23:34:40.283Z,15.82
2023-04-08T23:39:42.575Z,15.79
2023-04-08T23:44:44.714Z,15.82
2023-04-08T23:49:47.154Z,15.66
2023-04-08T23:54:52.160Z,15.60
2023-04-08T23:59:54.371Z,15.55
